sensor_id;sensor_type;location;lat;lon;timestamp;pressure;altitude;pressure_sealevel;temperature;humidity
44531;BME280;30240;47.418;0.700;2023-04-30T00:01:13;100763.916015625;;;11.75;83.58
44531;BME280;30240;47.418;0.700;2023-04-30T00:03:38;100763.916015625;;;11.75;83.58
44531;BME280;30240;47.418;0.700;2023-04-30T00:06:03;100764.54467773438;;;11.66;83.77
44531;BME280;30240;47.418;0.700;2023-04-30T00:08:28;100765.9912109375;;;11.66;83.75
44531;BME280;30240;47.418;0.700;2023-04-30T00:10:53;100761.376953125;;;11.71;83.71
44531;BME280;30240;47.418;0.700;2023-04-30T00:13:18;100765.283203125;;;11.64;83.85
44531;BME280;30240;47.418;0.700;2023-04-30T00:15:44;100765.283203125;;;11.64;83.85
44531;BME280;30240;47.418;0.700;2023-04-30T00:18:08;100769.0185546875;;;11.57;83.74
44531;BME280;30240;47.418;0.700;2023-04-30T00:20:33;100766.26586914062;;;11.54;83.95
44531;BME280;30240;47.418;0.700;2023-04-30T00:22:59;100769.6533203125;;;11.51;84.03
44531;BME280;30240;47.418;0.700;2023-04-30T00:25:23;100764.36157226562;;;11.44;84.12
44531;BME280;30240;47.418;0.700;2023-04-30T00:27:48;100764.36157226562;;;11.44;84.12
44531;BME280;30240;47.418;0.700;2023-04-30T00:30:14;100760.68725585938;;;11.35;84.34
44531;BME280;30240;47.418;0.700;2023-04-30T00:32:38;100759.99755859375;;;11.38;84.39
44531;BME280;30240;47.418;0.700;2023-04-30T00:35:04;100759.21630859375;;;11.3;84.46
44531;BME280;30240;47.418;0.700;2023-04-30T00:37:29;100756.73217773438;;;11.27;84.59
44531;BME280;30240;47.418;0.700;2023-04-30T00:39:53;100756.73217773438;;;11.27;84.59
44531;BME280;30240;47.418;0.700;2023-04-30T00:42:18;100755.10864257812;;;11.33;84.51
44531;BME280;30240;47.418;0.700;2023-04-30T00:44:43;100757.2509765625;;;11.28;84.38
44531;BME280;30240;47.418;0.700;2023-04-30T00:47:08;100758.00170898438;;;11.22;84.51
44531;BME280;30240;47.418;0.700;2023-04-30T00:49:34;100754.06494140625;;;11.2;84.5
44531;BME280;30240;47.418;0.700;2023-04-30T00:51:58;100754.06494140625;;;11.2;84.5
44531;BME280;30240;47.418;0.700;2023-04-30T00:54:24;100748.876953125;;;11.15;84.49
44531;BME280;30240;47.418;0.700;2023-04-30T00:56:48;100750.06103515625;;;11.15;84.47
44531;BME280;30240;47.418;0.700;2023-04-30T00:59:14;100756.689453125;;;11.0;84.7
44531;BME280;30240;47.418;0.700;2023-04-30T01:01:39;100758.22143554688;;;11.02;84.81
44531;BME280;30240;47.418;0.700;2023-04-30T01:04:04;100758.22143554688;;;11.02;84.81
44531;BME280;30240;47.418;0.700;2023-04-30T01:06:29;100759.68627929688;;;11.05;84.64
44531;BME280;30240;47.418;0.700;2023-04-30T01:08:54;100761.962890625;;;10.84;84.77
44531;BME280;30240;47.418;0.700;2023-04-30T01:11:25;100761.572265625;;;10.86;84.97
44531;BME280;30240;47.418;0.700;2023-04-30T01:13:49;100760.48583984375;;;10.92;84.55
44531;BME280;30240;47.418;0.700;2023-04-30T01:16:14;100757.14111328125;;;10.74;84.92
44531;BME280;30240;47.418;0.700;2023-04-30T01:18:37;100757.14111328125;;;10.74;84.92
44531;BME280;30240;47.418;0.700;2023-04-30T01:21:01;100759.18579101562;;;10.74;84.93
44531;BME280;30240;47.418;0.700;2023-04-30T01:23:31;100758.84399414062;;;10.72;84.83
44531;BME280;30240;47.418;0.700;2023-04-30T01:23:39;100758.84399414062;;;10.72;84.83
44531;BME280;30240;47.418;0.700;2023-04-30T01:25:57;100751.0009765625;;;10.78;84.83
44531;BME280;30240;47.418;0.700;2023-04-30T01:28:14;100756.65893554688;;;10.72;84.73
44531;BME280;30240;47.418;0.700;2023-04-30T01:30:40;100756.65893554688;;;10.72;84.73
44531;BME280;30240;47.418;0.700;2023-04-30T01:33:03;100757.2021484375;;;10.76;84.71
44531;BME280;30240;47.418;0.700;2023-04-30T01:35:45;100756.18896484375;;;10.72;84.68
44531;BME280;30240;47.418;0.700;2023-04-30T01:35:57;100756.18896484375;;;10.72;84.68
44531;BME280;30240;47.418;0.700;2023-04-30T01:37:59;100755.89599609375;;;10.65;84.92
44531;BME280;30240;47.418;0.700;2023-04-30T01:38:05;100755.89599609375;;;10.65;84.92
44531;BME280;30240;47.418;0.700;2023-04-30T01:38:09;100755.89599609375;;;10.65;84.92
44531;BME280;30240;47.418;0.700;2023-04-30T01:38:16;100755.89599609375;;;10.65;84.92
44531;BME280;30240;47.418;0.700;2023-04-30T01:40:23;100753.03344726562;;;10.61;84.78
44531;BME280;30240;47.418;0.700;2023-04-30T01:42:50;100753.03344726562;;;10.61;84.78
44531;BME280;30240;47.418;0.700;2023-04-30T01:45:17;100753.37524414062;;;10.61;84.87
44531;BME280;30240;47.418;0.700;2023-04-30T01:47:38;100754.18701171875;;;10.53;84.89
44531;BME280;30240;47.418;0.700;2023-04-30T01:50:04;100750.86059570312;;;10.47;84.92
44531;BME280;30240;47.418;0.700;2023-04-30T01:52:31;100756.591796875;;;10.49;85.06
44531;BME280;30240;47.418;0.700;2023-04-30T01:52:35;100756.591796875;;;10.49;85.06
44531;BME280;30240;47.418;0.700;2023-04-30T01:54:51;100756.591796875;;;10.49;85.06
44531;BME280;30240;47.418;0.700;2023-04-30T01:57:17;100751.58081054688;;;10.49;84.97
44531;BME280;30240;47.418;0.700;2023-04-30T01:59:39;100747.03369140625;;;10.44;85.01
44531;BME280;30240;47.418;0.700;2023-04-30T02:02:05;100751.56860351562;;;10.33;85.05
44531;BME280;30240;47.418;0.700;2023-04-30T02:04:28;100743.26782226562;;;10.32;85.09
44531;BME280;30240;47.418;0.700;2023-04-30T02:06:54;100743.26782226562;;;10.32;85.09
44531;BME280;30240;47.418;0.700;2023-04-30T02:09:18;100745.64208984375;;;10.37;85.09
44531;BME280;30240;47.418;0.700;2023-04-30T02:11:43;100744.54956054688;;;10.4;84.81
44531;BME280;30240;47.418;0.700;2023-04-30T02:14:09;100743.75610351562;;;10.33;84.85
44531;BME280;30240;47.418;0.700;2023-04-30T02:16:34;100746.6552734375;;;10.29;84.95
44531;BME280;30240;47.418;0.700;2023-04-30T02:18:59;100746.6552734375;;;10.29;84.95
44531;BME280;30240;47.418;0.700;2023-04-30T02:21:23;100745.1416015625;;;10.22;85.07
44531;BME280;30240;47.418;0.700;2023-04-30T02:23:48;100742.7978515625;;;10.23;85.12
44531;BME280;30240;47.418;0.700;2023-04-30T02:26:13;100739.03198242188;;;10.19;84.97
44531;BME280;30240;47.418;0.700;2023-04-30T02:28:38;100739.39819335938;;;10.12;85.0
44531;BME280;30240;47.418;0.700;2023-04-30T02:31:04;100739.39819335938;;;10.12;85.0
44531;BME280;30240;47.418;0.700;2023-04-30T02:33:28;100732.9833984375;;;10.12;85.03
44531;BME280;30240;47.418;0.700;2023-04-30T02:35:53;100740.90576171875;;;10.08;85.03
44531;BME280;30240;47.418;0.700;2023-04-30T02:38:18;100739.93530273438;;;10.05;85.06
44531;BME280;30240;47.418;0.700;2023-04-30T02:40:43;100742.52319335938;;;10.1;85.07
44531;BME280;30240;47.418;0.700;2023-04-30T02:43:09;100742.52319335938;;;10.1;85.07
44531;BME280;30240;47.418;0.700;2023-04-30T02:45:33;100739.76440429688;;;10.12;84.9
44531;BME280;30240;47.418;0.700;2023-04-30T02:47:59;100740.81420898438;;;10.08;84.96
44531;BME280;30240;47.418;0.700;2023-04-30T02:50:24;100741.71752929688;;;10.13;85.01
44531;BME280;30240;47.418;0.700;2023-04-30T02:52:48;100745.36743164062;;;9.99;85.07
44531;BME280;30240;47.418;0.700;2023-04-30T02:55:13;100748.35815429688;;;9.97;85.19
44531;BME280;30240;47.418;0.700;2023-04-30T02:57:38;100748.35815429688;;;9.97;85.19
44531;BME280;30240;47.418;0.700;2023-04-30T03:00:05;100746.81396484375;;;9.92;85.14
44531;BME280;30240;47.418;0.700;2023-04-30T03:02:28;100743.68896484375;;;9.97;85.25
44531;BME280;30240;47.418;0.700;2023-04-30T03:04:53;100747.45483398438;;;9.87;85.26
44531;BME280;30240;47.418;0.700;2023-04-30T03:07:18;100739.990234375;;;9.85;85.32
44531;BME280;30240;47.418;0.700;2023-04-30T03:09:43;100739.990234375;;;9.85;85.32
44531;BME280;30240;47.418;0.700;2023-04-30T03:12:08;100738.2568359375;;;9.8;85.28
44531;BME280;30240;47.418;0.700;2023-04-30T03:14:33;100740.60668945312;;;9.81;85.35
44531;BME280;30240;47.418;0.700;2023-04-30T03:16:58;100736.0107421875;;;9.78;85.17
44531;BME280;30240;47.418;0.700;2023-04-30T03:19:23;100734.07592773438;;;9.75;85.11
44531;BME280;30240;47.418;0.700;2023-04-30T03:21:49;100734.07592773438;;;9.75;85.11
44531;BME280;30240;47.418;0.700;2023-04-30T03:24:13;100733.75244140625;;;9.7;85.12
44531;BME280;30240;47.418;0.700;2023-04-30T03:26:39;100732.5439453125;;;9.71;85.21
44531;BME280;30240;47.418;0.700;2023-04-30T03:29:03;100733.251953125;;;9.61;85.17
44531;BME280;30240;47.418;0.700;2023-04-30T03:31:28;100734.16137695312;;;9.67;85.13
44531;BME280;30240;47.418;0.700;2023-04-30T03:33:53;100734.16137695312;;;9.67;85.13
44531;BME280;30240;47.418;0.700;2023-04-30T03:36:18;100726.48315429688;;;9.63;85.28
44531;BME280;30240;47.418;0.700;2023-04-30T03:38:43;100726.09252929688;;;9.7;85.11
44531;BME280;30240;47.418;0.700;2023-04-30T03:41:08;100729.26635742188;;;9.71;85.09
44531;BME280;30240;47.418;0.700;2023-04-30T03:43:33;100725.1220703125;;;9.61;85.15
44531;BME280;30240;47.418;0.700;2023-04-30T03:45:58;100725.1220703125;;;9.61;85.15
44531;BME280;30240;47.418;0.700;2023-04-30T03:48:24;100726.7333984375;;;9.63;85.18
44531;BME280;30240;47.418;0.700;2023-04-30T03:50:48;100724.31030273438;;;9.53;85.35
44531;BME280;30240;47.418;0.700;2023-04-30T03:53:13;100726.73950195312;;;9.5;85.58
44531;BME280;30240;47.418;0.700;2023-04-30T03:55:38;100732.33032226562;;;9.53;85.43
44531;BME280;30240;47.418;0.700;2023-04-30T03:58:03;100732.33032226562;;;9.53;85.43
44531;BME280;30240;47.418;0.700;2023-04-30T04:00:29;100725.45166015625;;;9.46;85.56
44531;BME280;30240;47.418;0.700;2023-04-30T04:02:53;100729.43725585938;;;9.47;85.61
44531;BME280;30240;47.418;0.700;2023-04-30T04:05:18;100728.90625;;;9.5;85.56
44531;BME280;30240;47.418;0.700;2023-04-30T04:07:43;100727.05688476562;;;9.49;85.51
44531;BME280;30240;47.418;0.700;2023-04-30T04:10:09;100727.05688476562;;;9.49;85.51
44531;BME280;30240;47.418;0.700;2023-04-30T04:12:33;100728.7841796875;;;9.6;85.59
44531;BME280;30240;47.418;0.700;2023-04-30T04:14:58;100728.54614257812;;;9.54;85.38
44531;BME280;30240;47.418;0.700;2023-04-30T04:17:23;100727.734375;;;9.49;85.48
44531;BME280;30240;47.418;0.700;2023-04-30T04:19:48;100729.59594726562;;;9.56;85.4
44531;BME280;30240;47.418;0.700;2023-04-30T04:22:14;100724.10888671875;;;9.47;85.5
44531;BME280;30240;47.418;0.700;2023-04-30T04:24:38;100724.10888671875;;;9.47;85.5
44531;BME280;30240;47.418;0.700;2023-04-30T04:27:03;100724.92065429688;;;9.5;85.39
44531;BME280;30240;47.418;0.700;2023-04-30T04:29:29;100729.21752929688;;;9.53;85.3
44531;BME280;30240;47.418;0.700;2023-04-30T04:31:53;100731.4697265625;;;9.57;85.22
44531;BME280;30240;47.418;0.700;2023-04-30T04:34:18;100736.23657226562;;;9.51;85.19
44531;BME280;30240;47.418;0.700;2023-04-30T04:36:43;100736.23657226562;;;9.51;85.19
44531;BME280;30240;47.418;0.700;2023-04-30T04:39:08;100733.29467773438;;;9.51;85.33
44531;BME280;30240;47.418;0.700;2023-04-30T04:41:34;100735.09521484375;;;9.46;85.35
44531;BME280;30240;47.418;0.700;2023-04-30T04:43:59;100737.75024414062;;;9.53;85.18
44531;BME280;30240;47.418;0.700;2023-04-30T04:46:24;100739.09301757812;;;9.57;85.09
44531;BME280;30240;47.418;0.700;2023-04-30T04:48:51;100739.09301757812;;;9.57;85.09
44531;BME280;30240;47.418;0.700;2023-04-30T04:51:14;100736.75537109375;;;9.44;84.95
44531;BME280;30240;47.418;0.700;2023-04-30T04:53:38;100737.451171875;;;9.46;85.07
44531;BME280;30240;47.418;0.700;2023-04-30T04:56:04;100735.09521484375;;;9.5;85.07
44531;BME280;30240;47.418;0.700;2023-04-30T04:58:29;100729.59594726562;;;9.53;84.88
44531;BME280;30240;47.418;0.700;2023-04-30T05:00:53;100729.59594726562;;;9.53;84.88
44531;BME280;30240;47.418;0.700;2023-04-30T05:03:19;100726.01318359375;;;9.54;84.89
44531;BME280;30240;47.418;0.700;2023-04-30T05:05:43;100723.12622070312;;;9.5;84.96
44531;BME280;30240;47.418;0.700;2023-04-30T05:08:09;100722.56469726562;;;9.5;84.78
44531;BME280;30240;47.418;0.700;2023-04-30T05:10:34;100724.93896484375;;;9.58;84.71
44531;BME280;30240;47.418;0.700;2023-04-30T05:12:59;100724.93896484375;;;9.58;84.71
44531;BME280;30240;47.418;0.700;2023-04-30T05:15:23;100727.25219726562;;;9.66;84.59
44531;BME280;30240;47.418;0.700;2023-04-30T05:17:48;100733.6669921875;;;9.6;84.43
44531;BME280;30240;47.418;0.700;2023-04-30T05:20:13;100739.1845703125;;;9.58;84.2
44531;BME280;30240;47.418;0.700;2023-04-30T05:22:38;100739.75830078125;;;9.61;84.13
44531;BME280;30240;47.418;0.700;2023-04-30T05:25:04;100739.75830078125;;;9.61;84.13
44531;BME280;30240;47.418;0.700;2023-04-30T05:27:28;100740.576171875;;;9.69;84.0
44531;BME280;30240;47.418;0.700;2023-04-30T05:29:53;100745.23315429688;;;9.73;83.8
44531;BME280;30240;47.418;0.700;2023-04-30T05:32:18;100743.60961914062;;;9.78;83.82
44531;BME280;30240;47.418;0.700;2023-04-30T05:34:43;100745.33081054688;;;9.66;83.83
44531;BME280;30240;47.418;0.700;2023-04-30T05:37:09;100745.33081054688;;;9.66;83.83
44531;BME280;30240;47.418;0.700;2023-04-30T05:39:33;100751.81884765625;;;9.73;83.48
44531;BME280;30240;47.418;0.700;2023-04-30T05:41:58;100755.96923828125;;;9.88;83.4
44531;BME280;30240;47.418;0.700;2023-04-30T05:44:23;100761.18774414062;;;9.82;83.14
44531;BME280;30240;47.418;0.700;2023-04-30T05:46:48;100761.328125;;;9.87;83.29
44531;BME280;30240;47.418;0.700;2023-04-30T05:49:14;100761.328125;;;9.87;83.29
44531;BME280;30240;47.418;0.700;2023-04-30T05:51:38;100763.69018554688;;;9.88;83.22
44531;BME280;30240;47.418;0.700;2023-04-30T05:54:03;100765.48461914062;;;9.98;82.99
44531;BME280;30240;47.418;0.700;2023-04-30T05:56:28;100772.76611328125;;;10.15;82.6
44531;BME280;30240;47.418;0.700;2023-04-30T05:58:53;100775.48217773438;;;10.16;82.51
44531;BME280;30240;47.418;0.700;2023-04-30T06:01:19;100772.18627929688;;;10.22;82.25
44531;BME280;30240;47.418;0.700;2023-04-30T06:03:43;100772.18627929688;;;10.22;82.25
44531;BME280;30240;47.418;0.700;2023-04-30T06:06:09;100774.853515625;;;10.32;82.17
44531;BME280;30240;47.418;0.700;2023-04-30T06:08:33;100778.3203125;;;10.58;81.84
44531;BME280;30240;47.418;0.700;2023-04-30T06:10:59;100785.46752929688;;;10.65;81.34
44531;BME280;30240;47.418;0.700;2023-04-30T06:13:24;100786.669921875;;;10.63;81.22
44531;BME280;30240;47.418;0.700;2023-04-30T06:15:49;100786.669921875;;;10.63;81.22
44531;BME280;30240;47.418;0.700;2023-04-30T06:18:13;100781.69555664062;;;10.61;81.11
44531;BME280;30240;47.418;0.700;2023-04-30T06:20:38;100787.5;;;10.74;81.46
44531;BME280;30240;47.418;0.700;2023-04-30T06:23:03;100793.32885742188;;;10.36;82.2
44531;BME280;30240;47.418;0.700;2023-04-30T06:25:29;100794.21997070312;;;10.67;81.95
44531;BME280;30240;47.418;0.700;2023-04-30T06:27:54;100794.21997070312;;;10.67;81.95
44531;BME280;30240;47.418;0.700;2023-04-30T06:30:18;100795.25146484375;;;10.64;81.64
44531;BME280;30240;47.418;0.700;2023-04-30T06:32:43;100792.73681640625;;;10.74;81.74
44531;BME280;30240;47.418;0.700;2023-04-30T06:35:08;100794.2626953125;;;10.47;81.78
44531;BME280;30240;47.418;0.700;2023-04-30T06:37:33;100798.828125;;;10.61;81.92
44531;BME280;30240;47.418;0.700;2023-04-30T06:39:58;100798.828125;;;10.61;81.92
44531;BME280;30240;47.418;0.700;2023-04-30T06:42:23;100797.4853515625;;;10.65;81.98
44531;BME280;30240;47.418;0.700;2023-04-30T06:44:48;100794.70825195312;;;10.99;81.04
44531;BME280;30240;47.418;0.700;2023-04-30T06:47:13;100793.73168945312;;;11.1;81.53
44531;BME280;30240;47.418;0.700;2023-04-30T06:49:38;100792.66967773438;;;11.17;80.98
44531;BME280;30240;47.418;0.700;2023-04-30T06:52:03;100792.66967773438;;;11.17;80.98
44531;BME280;30240;47.418;0.700;2023-04-30T06:54:29;100787.841796875;;;11.15;81.33
44531;BME280;30240;47.418;0.700;2023-04-30T06:56:53;100789.00146484375;;;11.55;80.53
44531;BME280;30240;47.418;0.700;2023-04-30T06:59:18;100795.1904296875;;;11.93;79.8
44531;BME280;30240;47.418;0.700;2023-04-30T07:01:43;100791.5283203125;;;11.62;79.52
44531;BME280;30240;47.418;0.700;2023-04-30T07:04:08;100791.5283203125;;;11.62;79.52
44531;BME280;30240;47.418;0.700;2023-04-30T07:06:33;100796.81396484375;;;11.86;78.99
44531;BME280;30240;47.418;0.700;2023-04-30T07:08:58;100797.85766601562;;;12.09;78.7
44531;BME280;30240;47.418;0.700;2023-04-30T07:11:23;100793.67065429688;;;11.83;79.07
44531;BME280;30240;47.418;0.700;2023-04-30T07:13:48;100791.54052734375;;;12.03;78.85
44531;BME280;30240;47.418;0.700;2023-04-30T07:16:13;100791.54052734375;;;12.03;78.85
44531;BME280;30240;47.418;0.700;2023-04-30T07:18:38;100791.03393554688;;;12.52;78.66
44531;BME280;30240;47.418;0.700;2023-04-30T07:21:03;100792.81005859375;;;12.51;77.85
44531;BME280;30240;47.418;0.700;2023-04-30T07:23:28;100792.61474609375;;;12.38;79.03
44531;BME280;30240;47.418;0.700;2023-04-30T07:25:53;100794.091796875;;;12.84;77.64
44531;BME280;30240;47.418;0.700;2023-04-30T07:28:19;100791.38793945312;;;13.04;77.25
44531;BME280;30240;47.418;0.700;2023-04-30T07:30:43;100791.38793945312;;;13.04;77.25
44531;BME280;30240;47.418;0.700;2023-04-30T07:33:08;100793.71948242188;;;13.38;76.42
44531;BME280;30240;47.418;0.700;2023-04-30T07:35:34;100804.45556640625;;;13.91;75.48
44531;BME280;30240;47.418;0.700;2023-04-30T07:37:58;100810.24780273438;;;13.93;74.31
44531;BME280;30240;47.418;0.700;2023-04-30T07:40:23;100805.31005859375;;;14.07;74.24
44531;BME280;30240;47.418;0.700;2023-04-30T07:42:48;100805.31005859375;;;14.07;74.24
44531;BME280;30240;47.418;0.700;2023-04-30T07:45:14;100804.62646484375;;;13.76;74.47
44531;BME280;30240;47.418;0.700;2023-04-30T07:47:38;100800.48217773438;;;14.36;74.11
44531;BME280;30240;47.418;0.700;2023-04-30T07:50:04;100802.54516601562;;;14.24;73.91
44531;BME280;30240;47.418;0.700;2023-04-30T07:52:28;100793.98193359375;;;14.89;71.2
44531;BME280;30240;47.418;0.700;2023-04-30T07:54:53;100793.98193359375;;;14.89;71.2
44531;BME280;30240;47.418;0.700;2023-04-30T07:57:19;100796.51489257812;;;15.18;71.07
44531;BME280;30240;47.418;0.700;2023-04-30T07:59:43;100797.88818359375;;;16.01;69.01
44531;BME280;30240;47.418;0.700;2023-04-30T08:02:08;100791.66259765625;;;15.33;69.93
44531;BME280;30240;47.418;0.700;2023-04-30T08:04:33;100797.29614257812;;;15.39;70.6
44531;BME280;30240;47.418;0.700;2023-04-30T08:06:58;100797.29614257812;;;15.39;70.6
44531;BME280;30240;47.418;0.700;2023-04-30T08:09:23;100795.263671875;;;15.42;70.28
44531;BME280;30240;47.418;0.700;2023-04-30T08:11:49;100790.4541015625;;;15.51;70.02
44531;BME280;30240;47.418;0.700;2023-04-30T08:14:13;100788.04931640625;;;14.67;71.33
44531;BME280;30240;47.418;0.700;2023-04-30T08:16:38;100794.20166015625;;;14.84;72.21
44531;BME280;30240;47.418;0.700;2023-04-30T08:19:03;100794.20166015625;;;14.84;72.21
44531;BME280;30240;47.418;0.700;2023-04-30T08:21:28;100798.96850585938;;;15.26;71.61
44531;BME280;30240;47.418;0.700;2023-04-30T08:23:53;100799.46899414062;;;15.34;71.43
44531;BME280;30240;47.418;0.700;2023-04-30T08:26:18;100792.12646484375;;;15.12;70.75
44531;BME280;30240;47.418;0.700;2023-04-30T08:28:43;100793.06030273438;;;15.47;70.1
44531;BME280;30240;47.418;0.700;2023-04-30T08:31:08;100793.06030273438;;;15.47;70.1
44531;BME280;30240;47.418;0.700;2023-04-30T08:33:33;100790.25268554688;;;15.36;70.37
44531;BME280;30240;47.418;0.700;2023-04-30T08:35:59;100786.33422851562;;;15.6;69.44
44531;BME280;30240;47.418;0.700;2023-04-30T08:38:23;100789.70336914062;;;17.3;66.88
44531;BME280;30240;47.418;0.700;2023-04-30T08:40:55;100791.00952148438;;;17.35;65.74
44531;BME280;30240;47.418;0.700;2023-04-30T08:43:14;100791.00952148438;;;17.35;65.74
44531;BME280;30240;47.418;0.700;2023-04-30T08:45:39;100785.63232421875;;;16.01;67.91
44531;BME280;30240;47.418;0.700;2023-04-30T08:48:09;100783.36181640625;;;16.55;67.27
44531;BME280;30240;47.418;0.700;2023-04-30T08:50:29;100782.50122070312;;;17.03;66.85
44531;BME280;30240;47.418;0.700;2023-04-30T08:52:54;100779.96826171875;;;18.17;62.62
44531;BME280;30240;47.418;0.700;2023-04-30T08:55:19;100779.96826171875;;;18.17;62.62
44531;BME280;30240;47.418;0.700;2023-04-30T08:57:43;100779.52880859375;;;18.45;62.07
44531;BME280;30240;47.418;0.700;2023-04-30T09:00:09;100778.564453125;;;17.44;62.79
44531;BME280;30240;47.418;0.700;2023-04-30T09:02:34;100774.00512695312;;;17.8;63.54
44531;BME280;30240;47.418;0.700;2023-04-30T09:04:59;100767.88940429688;;;17.9;62.68
44531;BME280;30240;47.418;0.700;2023-04-30T09:07:25;100761.52954101562;;;17.77;63.15
44531;BME280;30240;47.418;0.700;2023-04-30T09:09:51;100761.52954101562;;;17.77;63.15
44531;BME280;30240;47.418;0.700;2023-04-30T09:12:15;100762.2802734375;;;17.1;63.98
44531;BME280;30240;47.418;0.700;2023-04-30T09:14:39;100759.48486328125;;;17.34;63.63
44531;BME280;30240;47.418;0.700;2023-04-30T09:17:04;100763.48266601562;;;17.93;60.85
44531;BME280;30240;47.418;0.700;2023-04-30T09:19:29;100767.3095703125;;;17.24;63.25
44531;BME280;30240;47.418;0.700;2023-04-30T09:21:54;100767.3095703125;;;17.24;63.25
44531;BME280;30240;47.418;0.700;2023-04-30T09:24:19;100760.7177734375;;;17.7;61.22
44531;BME280;30240;47.418;0.700;2023-04-30T09:26:44;100762.21923828125;;;18.62;59.38
44531;BME280;30240;47.418;0.700;2023-04-30T09:29:09;100761.29760742188;;;18.55;59.95
44531;BME280;30240;47.418;0.700;2023-04-30T09:31:34;100760.57739257812;;;18.93;57.71
44531;BME280;30240;47.418;0.700;2023-04-30T09:33:58;100760.57739257812;;;18.93;57.71
44531;BME280;30240;47.418;0.700;2023-04-30T09:36:24;100758.984375;;;19.46;58.18
44531;BME280;30240;47.418;0.700;2023-04-30T09:38:49;100764.65454101562;;;19.63;56.46
44531;BME280;30240;47.418;0.700;2023-04-30T09:41:22;100763.11645507812;;;18.29;61.42
44531;BME280;30240;47.418;0.700;2023-04-30T09:43:43;100759.79614257812;;;19.36;58.45
44531;BME280;30240;47.418;0.700;2023-04-30T09:46:04;100759.79614257812;;;19.36;58.45
44531;BME280;30240;47.418;0.700;2023-04-30T09:48:29;100766.09497070312;;;19.54;58.53
44531;BME280;30240;47.418;0.700;2023-04-30T09:50:54;100757.568359375;;;20.11;55.79
44531;BME280;30240;47.418;0.700;2023-04-30T09:53:19;100760.84594726562;;;19.29;57.07
44531;BME280;30240;47.418;0.700;2023-04-30T09:55:45;100753.076171875;;;18.94;59.05
44531;BME280;30240;47.418;0.700;2023-04-30T09:58:09;100753.076171875;;;18.94;59.05
44531;BME280;30240;47.418;0.700;2023-04-30T10:00:34;100757.65380859375;;;19.56;55.89
44531;BME280;30240;47.418;0.700;2023-04-30T10:03:00;100759.34448242188;;;19.18;57.62
44531;BME280;30240;47.418;0.700;2023-04-30T10:05:24;100752.92358398438;;;18.63;59.77
44531;BME280;30240;47.418;0.700;2023-04-30T10:07:49;100760.91918945312;;;18.83;59.54
44531;BME280;30240;47.418;0.700;2023-04-30T10:10:14;100760.91918945312;;;18.83;59.54
44531;BME280;30240;47.418;0.700;2023-04-30T10:12:47;100758.7158203125;;;17.9;60.82
44531;BME280;30240;47.418;0.700;2023-04-30T10:15:08;100759.56420898438;;;18.38;59.89
44531;BME280;30240;47.418;0.700;2023-04-30T10:17:31;100753.81469726562;;;19.01;59.81
44531;BME280;30240;47.418;0.700;2023-04-30T10:19:57;100745.12329101562;;;20.22;56.15
44531;BME280;30240;47.418;0.700;2023-04-30T10:22:21;100745.12329101562;;;20.22;56.15
44531;BME280;30240;47.418;0.700;2023-04-30T10:24:44;100739.84375;;;20.57;54.53
44531;BME280;30240;47.418;0.700;2023-04-30T10:27:09;100733.39233398438;;;20.61;54.04
44531;BME280;30240;47.418;0.700;2023-04-30T10:29:33;100728.23486328125;;;21.19;53.96
44531;BME280;30240;47.418;0.700;2023-04-30T10:31:59;100733.0322265625;;;20.91;54.06
44531;BME280;30240;47.418;0.700;2023-04-30T10:34:40;100727.43530273438;;;21.86;52.11
44531;BME280;30240;47.418;0.700;2023-04-30T10:36:53;100727.43530273438;;;21.86;52.11
44531;BME280;30240;47.418;0.700;2023-04-30T10:39:14;100721.08764648438;;;20.86;52.47
44531;BME280;30240;47.418;0.700;2023-04-30T10:41:39;100720.25146484375;;;19.96;54.8
44531;BME280;30240;47.418;0.700;2023-04-30T10:44:06;100717.02880859375;;;20.05;55.01
44531;BME280;30240;47.418;0.700;2023-04-30T10:46:29;100716.40014648438;;;20.86;54.43
44531;BME280;30240;47.418;0.700;2023-04-30T10:48:54;100716.40014648438;;;20.86;54.43
44531;BME280;30240;47.418;0.700;2023-04-30T10:51:19;100714.37377929688;;;21.65;50.9
44531;BME280;30240;47.418;0.700;2023-04-30T10:53:44;100712.2802734375;;;19.57;56.5
44531;BME280;30240;47.418;0.700;2023-04-30T10:56:08;100707.18994140625;;;21.41;53.6
44531;BME280;30240;47.418;0.700;2023-04-30T10:58:35;100706.82983398438;;;22.33;51.44
44531;BME280;30240;47.418;0.700;2023-04-30T11:00:59;100706.82983398438;;;22.33;51.44
44531;BME280;30240;47.418;0.700;2023-04-30T11:03:24;100705.13916015625;;;21.96;51.36
44531;BME280;30240;47.418;0.700;2023-04-30T11:05:49;100698.60229492188;;;21.66;49.24
44531;BME280;30240;47.418;0.700;2023-04-30T11:08:14;100691.38793945312;;;22.96;49.61
44531;BME280;30240;47.418;0.700;2023-04-30T11:10:58;100695.42236328125;;;21.07;52.94